createdAt,value
2019-02-09T00:00:11.658Z,20.53
2019-02-09T00:05:17.454Z,17.10
2019-02-09T00:10:21.650Z,17.77
2019-02-09T00:15:27.071Z,19.40
2019-02-09T00:20:31.234Z,17.17
2019-02-09T00:25:36.175Z,19.10
2019-02-09T00:30:40.353Z,19.87
2019-02-09T00:35:45.267Z,19.47
2019-02-09T00:40:49.470Z,24.87
2019-02-09T00:45:54.932Z,24.93
2019-02-09T00:50:59.136Z,22.50
2019-02-09T00:56:05.076Z,20.33
2019-02-09T01:01:09.265Z,24.10
2019-02-09T01:06:14.630Z,26.73
2019-02-09T01:11:18.799Z,29.13
2019-02-09T01:16:24.232Z,24.10
2019-02-09T01:21:28.403Z,25.80
2019-02-09T01:26:32.925Z,20.50
2019-02-09T01:31:37.165Z,18.53
2019-02-09T01:36:41.420Z,20.03
2019-02-09T01:41:45.602Z,19.93
2019-02-09T01:46:49.863Z,21.80
2019-02-09T01:51:54.040Z,25.33
2019-02-09T01:56:59.126Z,20.83
2019-02-09T02:02:03.315Z,18.30
2019-02-09T02:07:07.622Z,18.20
2019-02-09T02:12:12.213Z,13.93
2019-02-09T02:17:17.295Z,16.00
2019-02-09T02:22:21.581Z,14.33
2019-02-09T02:27:25.872Z,20.53
2019-02-09T02:32:30.072Z,19.73
2019-02-09T02:37:34.451Z,22.03
2019-02-09T02:42:39.715Z,29.37
2019-02-09T02:47:44.535Z,26.63
2019-02-09T02:52:48.752Z,23.40
2019-02-09T02:57:53.439Z,26.43
2019-02-09T03:02:57.648Z,24.00
2019-02-09T03:08:02.291Z,21.03
2019-02-09T03:13:06.463Z,20.33
2019-02-09T03:18:11.090Z,21.23
2019-02-09T03:23:15.266Z,20.57
2019-02-09T03:28:20.266Z,23.40
2019-02-09T03:33:24.558Z,16.40
2019-02-09T03:38:28.843Z,18.53
2019-02-09T03:43:33.047Z,18.47
2019-02-09T03:48:37.227Z,18.17
2019-02-09T03:53:41.403Z,18.27
2019-02-09T03:58:45.584Z,18.87
2019-02-09T04:03:49.772Z,16.70
2019-02-09T04:08:54.141Z,18.37
2019-02-09T04:13:58.331Z,20.57
2019-02-09T04:19:02.547Z,18.60
2019-02-09T04:24:06.758Z,20.73
2019-02-09T04:29:12.223Z,16.80
2019-02-09T04:34:16.444Z,23.60
2019-02-09T04:39:21.978Z,22.27
2019-02-09T04:44:26.252Z,22.40
2019-02-09T04:49:30.447Z,22.43
2019-02-09T04:54:34.635Z,20.70
2019-02-09T04:59:40.191Z,19.60
2019-02-09T05:04:44.371Z,15.77
2019-02-09T05:09:48.548Z,15.57
2019-02-09T05:14:52.749Z,19.70
2019-02-09T05:19:56.929Z,19.13
2019-02-09T05:25:01.178Z,18.17
2019-02-09T05:30:06.588Z,17.10
2019-02-09T05:35:11.817Z,16.90
2019-02-09T05:40:16.897Z,20.20
2019-02-09T05:45:21.843Z,16.00
2019-02-09T05:50:26.112Z,12.77
2019-02-09T05:55:30.286Z,15.80
2019-02-09T06:00:40.403Z,15.17
2019-02-09T06:05:46.423Z,12.67
2019-02-09T06:10:50.600Z,8.43
2019-02-09T06:15:54.894Z,9.40
2019-02-09T06:20:59.126Z,6.77
2019-02-09T06:26:04.603Z,11.70
2019-02-09T06:31:08.783Z,15.27
2019-02-09T06:36:13.113Z,13.57
2019-02-09T06:41:17.312Z,11.47
2019-02-09T06:46:21.539Z,9.70
2019-02-09T06:51:25.707Z,5.63
2019-02-09T06:56:31.387Z,3.50
2019-02-09T07:01:35.554Z,4.20
2019-02-09T07:06:39.793Z,3.47
2019-02-09T07:11:43.975Z,2.90
2019-02-09T07:16:48.295Z,4.20
2019-02-09T07:21:52.456Z,2.67
2019-02-09T07:26:57.938Z,3.80
2019-02-09T07:32:02.135Z,2.70
2019-02-09T07:37:06.727Z,2.33
2019-02-09T07:42:10.921Z,2.20
2019-02-09T07:47:15.805Z,2.53
2019-02-09T07:52:22.164Z,4.50
2019-02-09T07:57:28.202Z,4.67
2019-02-09T08:02:32.398Z,6.63
2019-02-09T08:07:37.368Z,3.03
2019-02-09T08:12:42.095Z,4.13
2019-02-09T08:17:46.890Z,4.57
2019-02-09T08:22:51.446Z,2.97
2019-02-09T08:27:55.829Z,4.60
2019-02-09T08:33:00.036Z,2.47
2019-02-09T08:38:04.546Z,5.07
2019-02-09T08:43:09.872Z,2.97
2019-02-09T08:48:14.539Z,3.10
2019-02-09T08:53:19.819Z,4.10
2019-02-09T08:58:24.986Z,2.03
2019-02-09T09:03:29.186Z,3.80
2019-02-09T09:08:33.962Z,1.77
2019-02-09T09:13:38.376Z,2.33
2019-02-09T09:18:43.063Z,1.20
2019-02-09T09:23:47.537Z,2.70
2019-02-09T09:28:52.178Z,2.43
2019-02-09T09:33:56.375Z,1.70
2019-02-09T09:39:01.866Z,3.27
2019-02-09T09:44:06.650Z,1.80
2019-02-09T09:49:13.962Z,1.87
2019-02-09T09:54:18.517Z,2.67
2019-02-09T09:59:24.423Z,1.93
2019-02-09T10:04:28.895Z,3.80
2019-02-09T10:09:34.774Z,3.45
2019-02-09T10:14:41.206Z,5.33
2019-02-09T10:19:47.155Z,2.95
2019-02-09T10:24:52.606Z,1.67
2019-02-09T10:30:08.566Z,4.40
2019-02-09T10:35:13.827Z,2.67
2019-02-09T10:40:22.797Z,1.40
2019-02-09T10:45:30.693Z,0.80
2019-02-09T10:50:37.879Z,2.07
2019-02-09T10:55:42.358Z,2.63
2019-02-09T11:00:54.470Z,2.37
2019-02-09T11:05:59.011Z,3.53
2019-02-09T11:11:07.021Z,2.75
2019-02-09T11:16:13.192Z,2.80
2019-02-09T11:21:18.654Z,2.10
2019-02-09T11:26:22.981Z,2.33
2019-02-09T11:31:28.429Z,1.32
2019-02-09T11:36:32.703Z,4.17
2019-02-09T11:41:38.251Z,2.17
2019-02-09T11:46:42.442Z,2.35
2019-02-09T11:51:49.296Z,2.02
2019-02-09T11:56:53.645Z,3.55
2019-02-09T12:01:57.871Z,2.98
2019-02-09T12:07:04.168Z,3.83
2019-02-09T12:12:09.898Z,7.17
2019-02-09T12:17:14.362Z,2.93
2019-02-09T12:22:20.310Z,4.30
2019-02-09T12:27:24.502Z,3.00
2019-02-09T12:32:29.726Z,5.22
2019-02-09T12:37:34.208Z,3.63
2019-02-09T12:42:39.420Z,3.27
2019-02-09T12:47:43.908Z,5.53
2019-02-09T12:52:48.708Z,2.42
2019-02-09T12:57:53.169Z,3.67
2019-02-09T13:02:58.838Z,4.27
2019-02-09T13:08:03.080Z,3.22
2019-02-09T13:13:08.003Z,5.05
2019-02-09T13:18:12.527Z,4.27
2019-02-09T13:23:17.914Z,4.27
2019-02-09T13:28:22.408Z,2.33
2019-02-09T13:33:27.311Z,4.58
2019-02-09T13:38:31.543Z,4.25
2019-02-09T13:43:36.587Z,3.17
2019-02-09T13:48:40.849Z,1.55
2019-02-09T13:53:46.275Z,2.13
2019-02-09T13:58:50.783Z,4.20
2019-02-09T14:03:56.074Z,7.63
2019-02-09T14:09:00.654Z,2.43
2019-02-09T14:14:06.224Z,2.17
2019-02-09T14:19:10.743Z,7.67
2019-02-09T14:24:15.097Z,5.92
2019-02-09T14:29:19.386Z,3.27
2019-02-09T14:34:24.359Z,4.67
2019-02-09T14:39:28.642Z,1.70
2019-02-09T14:44:33.302Z,2.00
2019-02-09T14:49:37.495Z,4.12
2019-02-09T14:54:43.429Z,3.52
2019-02-09T14:59:47.980Z,6.25
2019-02-09T15:04:52.813Z,4.93
2019-02-09T15:09:57.306Z,5.83
2019-02-09T15:15:02.695Z,7.33
2019-02-09T15:20:09.264Z,6.37
2019-02-09T15:25:14.139Z,6.50
2019-02-09T15:30:19.722Z,4.47
2019-02-09T15:35:23.935Z,7.05
2019-02-09T15:40:28.457Z,8.90
2019-02-09T15:45:33.643Z,5.62
2019-02-09T15:50:37.872Z,3.17
2019-02-09T15:55:43.371Z,10.93
2019-02-09T16:00:47.578Z,4.37
2019-02-09T16:05:52.209Z,4.10
2019-02-09T16:10:56.495Z,3.73
2019-02-09T16:16:01.814Z,3.80
2019-02-09T16:21:06.179Z,6.12
2019-02-09T16:26:10.882Z,4.00
2019-02-09T16:31:15.064Z,3.90
2019-02-09T16:36:20.071Z,2.50
2019-02-09T16:41:24.370Z,6.93
2019-02-09T16:46:28.884Z,9.70
2019-02-09T16:51:33.153Z,7.43
2019-02-09T16:56:38.240Z,4.33
2019-02-09T17:01:44.469Z,4.40
2019-02-09T17:06:49.856Z,4.17
2019-02-09T17:11:54.038Z,6.33
2019-02-09T17:16:58.370Z,2.37
2019-02-09T17:22:02.570Z,5.33
2019-02-09T17:27:06.945Z,2.50
2019-02-09T17:32:11.135Z,5.57
2019-02-09T17:37:15.688Z,8.50
2019-02-09T17:42:19.898Z,4.50
2019-02-09T17:47:24.377Z,3.33
2019-02-09T17:52:28.592Z,4.53
2019-02-09T17:57:33.571Z,4.30
2019-02-09T18:02:37.751Z,5.40
2019-02-09T18:07:42.531Z,6.13
2019-02-09T18:12:46.939Z,5.00
2019-02-09T18:17:51.984Z,3.63
2019-02-09T18:22:56.583Z,3.30
2019-02-09T18:28:00.990Z,6.77
2019-02-09T18:33:06.585Z,3.60
2019-02-09T18:38:12.471Z,7.27
2019-02-09T18:43:16.781Z,4.40
2019-02-09T18:48:21.337Z,5.43
2019-02-09T18:53:25.558Z,4.57
2019-02-09T18:58:30.092Z,9.13
2019-02-09T19:03:34.267Z,8.27
2019-02-09T19:08:39.287Z,6.80
2019-02-09T19:13:43.487Z,5.27
2019-02-09T19:18:48.151Z,5.20
2019-02-09T19:23:52.352Z,3.87
2019-02-09T19:28:56.817Z,5.43
2019-02-09T19:34:02.491Z,7.73
2019-02-09T19:39:09.515Z,3.73
2019-02-09T19:44:14.085Z,6.27
2019-02-09T19:49:18.965Z,7.00
2019-02-09T19:54:23.179Z,1.70
2019-02-09T19:59:27.854Z,6.97
2019-02-09T20:04:32.034Z,3.93
2019-02-09T20:09:36.467Z,7.83
2019-02-09T20:14:40.680Z,6.97
2019-02-09T20:19:45.827Z,6.67
2019-02-09T20:24:50.009Z,6.07
2019-02-09T20:29:54.289Z,2.30
2019-02-09T20:34:58.463Z,3.60
2019-02-09T20:40:03.888Z,0.97
2019-02-09T20:45:09.154Z,5.07
2019-02-09T20:50:15.420Z,6.27
2019-02-09T20:55:19.863Z,3.63
2019-02-09T21:00:24.523Z,3.97
2019-02-09T21:05:36.192Z,6.77
2019-02-09T21:10:35.654Z,5.10
2019-02-09T21:15:39.880Z,2.37
2019-02-09T21:20:44.584Z,3.40
2019-02-09T21:25:49.974Z,3.93
2019-02-09T21:30:54.394Z,5.97
2019-02-09T21:35:58.606Z,3.93
2019-02-09T21:41:03.101Z,4.87
2019-02-09T21:46:07.571Z,7.37
2019-02-09T21:51:12.730Z,4.90
2019-02-09T21:56:16.966Z,8.27
2019-02-09T22:01:21.947Z,4.33
2019-02-09T22:06:26.134Z,6.00
2019-02-09T22:11:31.119Z,5.70
2019-02-09T22:16:38.334Z,6.63
2019-02-09T22:21:42.700Z,1.83
2019-02-09T22:26:48.014Z,4.70
2019-02-09T22:31:52.274Z,5.17
2019-02-09T22:36:56.507Z,3.00
2019-02-09T22:42:01.150Z,3.53
2019-02-09T22:47:05.347Z,3.00
2019-02-09T22:52:09.610Z,5.07
2019-02-09T22:57:13.774Z,1.53
2019-02-09T23:02:18.876Z,3.37
2019-02-09T23:07:24.564Z,2.27
2019-02-09T23:12:29.092Z,5.43
2019-02-09T23:17:33.282Z,4.27
2019-02-09T23:22:37.577Z,4.53
2019-02-09T23:27:41.770Z,3.80
2019-02-09T23:32:46.652Z,4.47
2019-02-09T23:37:50.810Z,7.50
2019-02-09T23:42:55.842Z,4.47
2019-02-09T23:48:00.002Z,1.67
2019-02-09T23:53:04.592Z,3.97
2019-02-09T23:58:08.776Z,4.60
